sensor_id;sensor_type;location;lat;lon;timestamp;pressure;altitude;pressure_sealevel;temperature
64960;BMP180;51487;52.266;10.542;2024-01-30T00:02:21;101886.00;;;3.40
64960;BMP180;51487;52.266;10.542;2024-01-30T00:04:47;101882.00;;;3.40
64960;BMP180;51487;52.266;10.542;2024-01-30T00:07:13;101886.00;;;3.50
64960;BMP180;51487;52.266;10.542;2024-01-30T00:09:39;101882.00;;;3.50
64960;BMP180;51487;52.266;10.542;2024-01-30T00:12:05;101881.00;;;3.50
64960;BMP180;51487;52.266;10.542;2024-01-30T00:14:31;101880.00;;;3.50
64960;BMP180;51487;52.266;10.542;2024-01-30T00:16:57;101880.00;;;3.50
64960;BMP180;51487;52.266;10.542;2024-01-30T00:19:22;101875.00;;;3.60
64960;BMP180;51487;52.266;10.542;2024-01-30T00:21:48;101874.00;;;3.60
64960;BMP180;51487;52.266;10.542;2024-01-30T00:24:14;101877.00;;;3.60
64960;BMP180;51487;52.266;10.542;2024-01-30T00:26:39;101877.00;;;3.60
64960;BMP180;51487;52.266;10.542;2024-01-30T00:29:05;101876.00;;;3.70
64960;BMP180;51487;52.266;10.542;2024-01-30T00:31:31;101865.00;;;3.70
64960;BMP180;51487;52.266;10.542;2024-01-30T00:33:59;101861.00;;;3.70
64960;BMP180;51487;52.266;10.542;2024-01-30T00:36:25;101858.00;;;3.60
64960;BMP180;51487;52.266;10.542;2024-01-30T00:38:50;101859.00;;;3.50
64960;BMP180;51487;52.266;10.542;2024-01-30T00:41:17;101858.00;;;3.50
64960;BMP180;51487;52.266;10.542;2024-01-30T00:43:44;101858.00;;;3.50
64960;BMP180;51487;52.266;10.542;2024-01-30T00:46:10;101858.00;;;3.50
64960;BMP180;51487;52.266;10.542;2024-01-30T00:48:35;101860.00;;;3.50
64960;BMP180;51487;52.266;10.542;2024-01-30T00:51:01;101865.00;;;3.60
64960;BMP180;51487;52.266;10.542;2024-01-30T00:53:26;101876.00;;;3.60
64960;BMP180;51487;52.266;10.542;2024-01-30T00:55:52;101874.00;;;3.70
64960;BMP180;51487;52.266;10.542;2024-01-30T00:58:17;101877.00;;;3.70
64960;BMP180;51487;52.266;10.542;2024-01-30T01:00:44;101864.00;;;3.70
64960;BMP180;51487;52.266;10.542;2024-01-30T01:03:10;101870.00;;;3.70
64960;BMP180;51487;52.266;10.542;2024-01-30T01:05:39;101865.00;;;3.70
64960;BMP180;51487;52.266;10.542;2024-01-30T01:08:05;101880.00;;;3.60
64960;BMP180;51487;52.266;10.542;2024-01-30T01:10:30;101882.00;;;3.60
64960;BMP180;51487;52.266;10.542;2024-01-30T01:12:57;101891.00;;;3.70
64960;BMP180;51487;52.266;10.542;2024-01-30T01:15:23;101881.00;;;3.70
64960;BMP180;51487;52.266;10.542;2024-01-30T01:17:48;101881.00;;;3.70
64960;BMP180;51487;52.266;10.542;2024-01-30T01:20:14;101877.00;;;3.70
64960;BMP180;51487;52.266;10.542;2024-01-30T01:22:40;101895.00;;;3.60
64960;BMP180;51487;52.266;10.542;2024-01-30T01:25:06;101877.00;;;3.40
64960;BMP180;51487;52.266;10.542;2024-01-30T01:27:33;101873.00;;;3.40
64960;BMP180;51487;52.266;10.542;2024-01-30T01:30:00;101877.00;;;3.40
64960;BMP180;51487;52.266;10.542;2024-01-30T01:32:25;101871.00;;;3.40
64960;BMP180;51487;52.266;10.542;2024-01-30T01:34:51;101881.00;;;3.40
64960;BMP180;51487;52.266;10.542;2024-01-30T01:37:16;101869.00;;;3.40
64960;BMP180;51487;52.266;10.542;2024-01-30T01:39:42;101877.00;;;3.50
64960;BMP180;51487;52.266;10.542;2024-01-30T01:42:07;101878.00;;;3.50
64960;BMP180;51487;52.266;10.542;2024-01-30T01:44:33;101871.00;;;3.60
64960;BMP180;51487;52.266;10.542;2024-01-30T01:46:59;101870.00;;;3.60
64960;BMP180;51487;52.266;10.542;2024-01-30T01:49:25;101872.00;;;3.70
64960;BMP180;51487;52.266;10.542;2024-01-30T01:51:54;101860.00;;;3.70
64960;BMP180;51487;52.266;10.542;2024-01-30T01:54:25;101870.00;;;3.80
64960;BMP180;51487;52.266;10.542;2024-01-30T01:56:53;101862.00;;;3.80
64960;BMP180;51487;52.266;10.542;2024-01-30T01:59:19;101862.00;;;3.70
64960;BMP180;51487;52.266;10.542;2024-01-30T02:01:46;101862.00;;;3.70
64960;BMP180;51487;52.266;10.542;2024-01-30T02:04:14;101864.00;;;3.60
64960;BMP180;51487;52.266;10.542;2024-01-30T02:06:41;101862.00;;;3.60
64960;BMP180;51487;52.266;10.542;2024-01-30T02:09:07;101860.00;;;3.50
64960;BMP180;51487;52.266;10.542;2024-01-30T02:11:34;101869.00;;;3.50
64960;BMP180;51487;52.266;10.542;2024-01-30T02:14:04;101860.00;;;3.50
64960;BMP180;51487;52.266;10.542;2024-01-30T02:16:30;101849.00;;;3.40
64960;BMP180;51487;52.266;10.542;2024-01-30T02:18:56;101846.00;;;3.40
64960;BMP180;51487;52.266;10.542;2024-01-30T02:21:22;101835.00;;;3.20
64960;BMP180;51487;52.266;10.542;2024-01-30T02:23:48;101838.00;;;3.20
64960;BMP180;51487;52.266;10.542;2024-01-30T02:26:15;101832.00;;;3.20
64960;BMP180;51487;52.266;10.542;2024-01-30T02:28:41;101841.00;;;3.10
64960;BMP180;51487;52.266;10.542;2024-01-30T02:31:06;101835.00;;;3.10
64960;BMP180;51487;52.266;10.542;2024-01-30T02:33:32;101838.00;;;3.20
64960;BMP180;51487;52.266;10.542;2024-01-30T02:35:58;101831.00;;;3.20
64960;BMP180;51487;52.266;10.542;2024-01-30T02:38:23;101825.00;;;3.30
64960;BMP180;51487;52.266;10.542;2024-01-30T02:40:49;101826.00;;;3.30
64960;BMP180;51487;52.266;10.542;2024-01-30T02:43:16;101826.00;;;3.30
64960;BMP180;51487;52.266;10.542;2024-01-30T02:45:42;101813.00;;;3.30
64960;BMP180;51487;52.266;10.542;2024-01-30T02:48:07;101816.00;;;3.20
64960;BMP180;51487;52.266;10.542;2024-01-30T02:50:33;101823.00;;;3.20
64960;BMP180;51487;52.266;10.542;2024-01-30T02:52:59;101826.00;;;3.30
64960;BMP180;51487;52.266;10.542;2024-01-30T02:55:24;101826.00;;;3.20
64960;BMP180;51487;52.266;10.542;2024-01-30T02:57:50;101812.00;;;3.20
64960;BMP180;51487;52.266;10.542;2024-01-30T03:00:16;101814.00;;;3.20
64960;BMP180;51487;52.266;10.542;2024-01-30T03:02:41;101822.00;;;3.30
64960;BMP180;51487;52.266;10.542;2024-01-30T03:05:07;101823.00;;;3.30
64960;BMP180;51487;52.266;10.542;2024-01-30T03:07:33;101812.00;;;3.50
64960;BMP180;51487;52.266;10.542;2024-01-30T03:09:59;101818.00;;;3.40
64960;BMP180;51487;52.266;10.542;2024-01-30T03:12:24;101808.00;;;3.50
64960;BMP180;51487;52.266;10.542;2024-01-30T03:14:50;101819.00;;;3.40
64960;BMP180;51487;52.266;10.542;2024-01-30T03:17:16;101826.00;;;3.50
64960;BMP180;51487;52.266;10.542;2024-01-30T03:19:41;101818.00;;;3.50
64960;BMP180;51487;52.266;10.542;2024-01-30T03:22:07;101802.00;;;3.50
64960;BMP180;51487;52.266;10.542;2024-01-30T03:24:33;101812.00;;;3.40
64960;BMP180;51487;52.266;10.542;2024-01-30T03:26:58;101807.00;;;3.50
64960;BMP180;51487;52.266;10.542;2024-01-30T03:29:24;101805.00;;;3.50
64960;BMP180;51487;52.266;10.542;2024-01-30T03:31:49;101799.00;;;3.40
64960;BMP180;51487;52.266;10.542;2024-01-30T03:34:15;101808.00;;;3.40
64960;BMP180;51487;52.266;10.542;2024-01-30T03:36:40;101800.00;;;3.40
64960;BMP180;51487;52.266;10.542;2024-01-30T03:39:06;101798.00;;;3.30
64960;BMP180;51487;52.266;10.542;2024-01-30T03:41:32;101790.00;;;3.30
64960;BMP180;51487;52.266;10.542;2024-01-30T03:43:57;101798.00;;;3.30
64960;BMP180;51487;52.266;10.542;2024-01-30T03:46:24;101805.00;;;3.20
64960;BMP180;51487;52.266;10.542;2024-01-30T03:48:50;101794.00;;;3.20
64960;BMP180;51487;52.266;10.542;2024-01-30T03:51:15;101787.00;;;3.20
64960;BMP180;51487;52.266;10.542;2024-01-30T03:53:42;101794.00;;;3.10
64960;BMP180;51487;52.266;10.542;2024-01-30T03:56:08;101797.00;;;3.10
64960;BMP180;51487;52.266;10.542;2024-01-30T03:58:34;101801.00;;;3.10
64960;BMP180;51487;52.266;10.542;2024-01-30T04:01:00;101796.00;;;3.10
64960;BMP180;51487;52.266;10.542;2024-01-30T04:03:26;101790.00;;;3.10
64960;BMP180;51487;52.266;10.542;2024-01-30T04:05:52;101784.00;;;3.10
64960;BMP180;51487;52.266;10.542;2024-01-30T04:08:18;101791.00;;;3.20
64960;BMP180;51487;52.266;10.542;2024-01-30T04:10:44;101789.00;;;3.20
64960;BMP180;51487;52.266;10.542;2024-01-30T04:13:10;101784.00;;;3.20
64960;BMP180;51487;52.266;10.542;2024-01-30T04:15:36;101790.00;;;3.20
64960;BMP180;51487;52.266;10.542;2024-01-30T04:18:02;101785.00;;;3.10
64960;BMP180;51487;52.266;10.542;2024-01-30T04:20:27;101769.00;;;3.10
64960;BMP180;51487;52.266;10.542;2024-01-30T04:22:54;101768.00;;;3.20
64960;BMP180;51487;52.266;10.542;2024-01-30T04:25:19;101771.00;;;3.10
64960;BMP180;51487;52.266;10.542;2024-01-30T04:27:46;101767.00;;;3.10
64960;BMP180;51487;52.266;10.542;2024-01-30T04:30:11;101777.00;;;3.20
64960;BMP180;51487;52.266;10.542;2024-01-30T04:32:37;101769.00;;;3.20
64960;BMP180;51487;52.266;10.542;2024-01-30T04:35:03;101778.00;;;3.20
64960;BMP180;51487;52.266;10.542;2024-01-30T04:37:29;101774.00;;;3.30
64960;BMP180;51487;52.266;10.542;2024-01-30T04:39:54;101772.00;;;3.30
64960;BMP180;51487;52.266;10.542;2024-01-30T04:42:20;101778.00;;;3.40
64960;BMP180;51487;52.266;10.542;2024-01-30T04:44:46;101770.00;;;3.40
64960;BMP180;51487;52.266;10.542;2024-01-30T04:47:11;101774.00;;;3.40
64960;BMP180;51487;52.266;10.542;2024-01-30T04:49:40;101777.00;;;3.50
64960;BMP180;51487;52.266;10.542;2024-01-30T04:52:07;101781.00;;;3.50
64960;BMP180;51487;52.266;10.542;2024-01-30T04:54:33;101778.00;;;3.50
64960;BMP180;51487;52.266;10.542;2024-01-30T04:57:00;101774.00;;;3.60
64960;BMP180;51487;52.266;10.542;2024-01-30T04:59:26;101782.00;;;3.70
64960;BMP180;51487;52.266;10.542;2024-01-30T05:01:51;101782.00;;;3.60
64960;BMP180;51487;52.266;10.542;2024-01-30T05:04:17;101778.00;;;3.60
64960;BMP180;51487;52.266;10.542;2024-01-30T05:06:43;101774.00;;;3.60
64960;BMP180;51487;52.266;10.542;2024-01-30T05:09:08;101772.00;;;3.60
64960;BMP180;51487;52.266;10.542;2024-01-30T05:11:40;101776.00;;;3.60
64960;BMP180;51487;52.266;10.542;2024-01-30T05:14:07;101768.00;;;3.60
64960;BMP180;51487;52.266;10.542;2024-01-30T05:16:33;101770.00;;;3.60
64960;BMP180;51487;52.266;10.542;2024-01-30T05:18:59;101773.00;;;3.70
64960;BMP180;51487;52.266;10.542;2024-01-30T05:21:25;101765.00;;;3.80
64960;BMP180;51487;52.266;10.542;2024-01-30T05:23:51;101773.00;;;3.80
64960;BMP180;51487;52.266;10.542;2024-01-30T05:26:17;101775.00;;;3.80
64960;BMP180;51487;52.266;10.542;2024-01-30T05:28:43;101778.00;;;3.90
64960;BMP180;51487;52.266;10.542;2024-01-30T05:31:11;101768.00;;;3.90
64960;BMP180;51487;52.266;10.542;2024-01-30T05:33:37;101767.00;;;3.90
64960;BMP180;51487;52.266;10.542;2024-01-30T05:36:03;101766.00;;;4.00
64960;BMP180;51487;52.266;10.542;2024-01-30T05:38:29;101777.00;;;3.90
64960;BMP180;51487;52.266;10.542;2024-01-30T05:40:55;101769.00;;;3.90
64960;BMP180;51487;52.266;10.542;2024-01-30T05:43:23;101774.00;;;3.80
64960;BMP180;51487;52.266;10.542;2024-01-30T05:45:49;101761.00;;;3.70
64960;BMP180;51487;52.266;10.542;2024-01-30T05:48:15;101768.00;;;3.70
64960;BMP180;51487;52.266;10.542;2024-01-30T05:50:41;101775.00;;;3.70
64960;BMP180;51487;52.266;10.542;2024-01-30T05:53:06;101769.00;;;3.60
64960;BMP180;51487;52.266;10.542;2024-01-30T05:55:33;101769.00;;;3.70
64960;BMP180;51487;52.266;10.542;2024-01-30T05:57:59;101771.00;;;3.70
64960;BMP180;51487;52.266;10.542;2024-01-30T06:00:25;101783.00;;;3.70
64960;BMP180;51487;52.266;10.542;2024-01-30T06:02:50;101766.00;;;3.70
64960;BMP180;51487;52.266;10.542;2024-01-30T06:05:19;101771.00;;;3.60
64960;BMP180;51487;52.266;10.542;2024-01-30T06:07:44;101776.00;;;3.60
64960;BMP180;51487;52.266;10.542;2024-01-30T06:10:10;101778.00;;;3.60
64960;BMP180;51487;52.266;10.542;2024-01-30T06:12:36;101772.00;;;3.50
64960;BMP180;51487;52.266;10.542;2024-01-30T06:15:03;101764.00;;;3.50
64960;BMP180;51487;52.266;10.542;2024-01-30T06:17:29;101763.00;;;3.50
64960;BMP180;51487;52.266;10.542;2024-01-30T06:19:55;101761.00;;;3.40
64960;BMP180;51487;52.266;10.542;2024-01-30T06:22:21;101762.00;;;3.40
64960;BMP180;51487;52.266;10.542;2024-01-30T06:24:46;101755.00;;;3.40
64960;BMP180;51487;52.266;10.542;2024-01-30T06:27:14;101759.00;;;3.40
64960;BMP180;51487;52.266;10.542;2024-01-30T06:29:40;101758.00;;;3.40
64960;BMP180;51487;52.266;10.542;2024-01-30T06:32:10;101753.00;;;3.30
64960;BMP180;51487;52.266;10.542;2024-01-30T06:34:35;101753.00;;;3.40
64960;BMP180;51487;52.266;10.542;2024-01-30T06:37:01;101755.00;;;3.40
64960;BMP180;51487;52.266;10.542;2024-01-30T06:39:27;101750.00;;;3.40
64960;BMP180;51487;52.266;10.542;2024-01-30T06:41:52;101769.00;;;3.40
64960;BMP180;51487;52.266;10.542;2024-01-30T06:44:18;101759.00;;;3.50
64960;BMP180;51487;52.266;10.542;2024-01-30T06:46:43;101762.00;;;3.50
64960;BMP180;51487;52.266;10.542;2024-01-30T06:49:09;101756.00;;;3.40
64960;BMP180;51487;52.266;10.542;2024-01-30T06:51:34;101755.00;;;3.30
64960;BMP180;51487;52.266;10.542;2024-01-30T06:54:00;101757.00;;;3.30
64960;BMP180;51487;52.266;10.542;2024-01-30T06:56:26;101749.00;;;3.20
64960;BMP180;51487;52.266;10.542;2024-01-30T06:58:52;101756.00;;;3.10
64960;BMP180;51487;52.266;10.542;2024-01-30T07:01:17;101751.00;;;3.10
64960;BMP180;51487;52.266;10.542;2024-01-30T07:03:43;101753.00;;;3.10
64960;BMP180;51487;52.266;10.542;2024-01-30T07:06:09;101753.00;;;3.20
64960;BMP180;51487;52.266;10.542;2024-01-30T07:08:37;101754.00;;;3.30
64960;BMP180;51487;52.266;10.542;2024-01-30T07:11:06;101750.00;;;3.40
64960;BMP180;51487;52.266;10.542;2024-01-30T07:13:33;101744.00;;;3.40
64960;BMP180;51487;52.266;10.542;2024-01-30T07:15:59;101740.00;;;3.50
64960;BMP180;51487;52.266;10.542;2024-01-30T07:18:25;101743.00;;;3.50
64960;BMP180;51487;52.266;10.542;2024-01-30T07:20:51;101738.00;;;3.60
64960;BMP180;51487;52.266;10.542;2024-01-30T07:23:16;101745.00;;;3.70
64960;BMP180;51487;52.266;10.542;2024-01-30T07:25:43;101747.00;;;3.80
64960;BMP180;51487;52.266;10.542;2024-01-30T07:28:10;101741.00;;;3.70
64960;BMP180;51487;52.266;10.542;2024-01-30T07:30:37;101741.00;;;3.80
64960;BMP180;51487;52.266;10.542;2024-01-30T07:33:04;101742.00;;;3.70
64960;BMP180;51487;52.266;10.542;2024-01-30T07:35:30;101736.00;;;3.70
64960;BMP180;51487;52.266;10.542;2024-01-30T07:37:55;101735.00;;;3.60
64960;BMP180;51487;52.266;10.542;2024-01-30T07:40:22;101736.00;;;3.60
64960;BMP180;51487;52.266;10.542;2024-01-30T07:42:48;101740.00;;;3.50
64960;BMP180;51487;52.266;10.542;2024-01-30T07:45:13;101743.00;;;3.50
64960;BMP180;51487;52.266;10.542;2024-01-30T07:47:39;101744.00;;;3.40
64960;BMP180;51487;52.266;10.542;2024-01-30T07:50:05;101751.00;;;3.50
64960;BMP180;51487;52.266;10.542;2024-01-30T07:52:31;101751.00;;;3.50
64960;BMP180;51487;52.266;10.542;2024-01-30T07:54:57;101746.00;;;3.60
64960;BMP180;51487;52.266;10.542;2024-01-30T07:57:22;101743.00;;;3.60
64960;BMP180;51487;52.266;10.542;2024-01-30T07:59:48;101745.00;;;3.70
64960;BMP180;51487;52.266;10.542;2024-01-30T08:02:14;101740.00;;;3.80
64960;BMP180;51487;52.266;10.542;2024-01-30T08:04:39;101739.00;;;4.00
64960;BMP180;51487;52.266;10.542;2024-01-30T08:07:05;101744.00;;;4.10
64960;BMP180;51487;52.266;10.542;2024-01-30T08:09:31;101747.00;;;4.20
64960;BMP180;51487;52.266;10.542;2024-01-30T08:11:57;101749.00;;;4.30
64960;BMP180;51487;52.266;10.542;2024-01-30T08:14:23;101747.00;;;4.30
64960;BMP180;51487;52.266;10.542;2024-01-30T08:16:48;101741.00;;;4.30
64960;BMP180;51487;52.266;10.542;2024-01-30T08:19:14;101749.00;;;4.40
64960;BMP180;51487;52.266;10.542;2024-01-30T08:21:41;101740.00;;;4.40
64960;BMP180;51487;52.266;10.542;2024-01-30T08:24:07;101740.00;;;4.40
64960;BMP180;51487;52.266;10.542;2024-01-30T08:26:33;101731.00;;;4.40
64960;BMP180;51487;52.266;10.542;2024-01-30T08:28:59;101737.00;;;4.40
64960;BMP180;51487;52.266;10.542;2024-01-30T08:31:25;101733.00;;;4.50
64960;BMP180;51487;52.266;10.542;2024-01-30T08:33:50;101739.00;;;4.40
64960;BMP180;51487;52.266;10.542;2024-01-30T08:36:17;101738.00;;;4.50
64960;BMP180;51487;52.266;10.542;2024-01-30T08:38:45;101749.00;;;4.50
64960;BMP180;51487;52.266;10.542;2024-01-30T08:41:11;101739.00;;;4.70
64960;BMP180;51487;52.266;10.542;2024-01-30T08:43:37;101741.00;;;4.80
64960;BMP180;51487;52.266;10.542;2024-01-30T08:46:03;101751.00;;;10.70
64960;BMP180;51487;52.266;10.542;2024-01-30T08:48:29;101750.00;;;12.90
64960;BMP180;51487;52.266;10.542;2024-01-30T08:50:55;101751.00;;;11.70
64960;BMP180;51487;52.266;10.542;2024-01-30T08:53:23;101754.00;;;10.20
64960;BMP180;51487;52.266;10.542;2024-01-30T08:55:49;101747.00;;;9.10
64960;BMP180;51487;52.266;10.542;2024-01-30T08:58:15;101745.00;;;8.40
64960;BMP180;51487;52.266;10.542;2024-01-30T09:00:43;101751.00;;;7.90
64960;BMP180;51487;52.266;10.542;2024-01-30T09:03:08;101745.00;;;7.50
64960;BMP180;51487;52.266;10.542;2024-01-30T09:05:34;101742.00;;;7.00
64960;BMP180;51487;52.266;10.542;2024-01-30T09:08:00;101739.00;;;6.80
64960;BMP180;51487;52.266;10.542;2024-01-30T09:10:25;101731.00;;;6.90
64960;BMP180;51487;52.266;10.542;2024-01-30T09:12:51;101729.00;;;6.80
64960;BMP180;51487;52.266;10.542;2024-01-30T09:15:17;101722.00;;;6.80
64960;BMP180;51487;52.266;10.542;2024-01-30T09:17:44;101719.00;;;6.90
64960;BMP180;51487;52.266;10.542;2024-01-30T09:20:10;101722.00;;;7.00
64960;BMP180;51487;52.266;10.542;2024-01-30T09:22:36;101725.00;;;7.10
64960;BMP180;51487;52.266;10.542;2024-01-30T09:25:01;101718.00;;;7.10
64960;BMP180;51487;52.266;10.542;2024-01-30T09:27:27;101726.00;;;7.30
64960;BMP180;51487;52.266;10.542;2024-01-30T09:29:52;101726.00;;;7.30
64960;BMP180;51487;52.266;10.542;2024-01-30T09:32:18;101726.00;;;7.40
64960;BMP180;51487;52.266;10.542;2024-01-30T09:34:43;101734.00;;;7.40
64960;BMP180;51487;52.266;10.542;2024-01-30T09:37:09;101722.00;;;7.30
64960;BMP180;51487;52.266;10.542;2024-01-30T09:39:35;101719.00;;;7.40
64960;BMP180;51487;52.266;10.542;2024-01-30T09:42:35;101726.00;;;7.40
64960;BMP180;51487;52.266;10.542;2024-01-30T09:45:02;101725.00;;;7.50
64960;BMP180;51487;52.266;10.542;2024-01-30T09:47:32;101717.00;;;7.50
64960;BMP180;51487;52.266;10.542;2024-01-30T09:50:01;101723.00;;;7.50
64960;BMP180;51487;52.266;10.542;2024-01-30T09:52:28;101726.00;;;7.60
64960;BMP180;51487;52.266;10.542;2024-01-30T09:54:53;101724.00;;;7.70
64960;BMP180;51487;52.266;10.542;2024-01-30T09:57:19;101724.00;;;7.80
64960;BMP180;51487;52.266;10.542;2024-01-30T09:59:46;101722.00;;;7.80
64960;BMP180;51487;52.266;10.542;2024-01-30T10:02:11;101719.00;;;7.90
64960;BMP180;51487;52.266;10.542;2024-01-30T10:04:37;101715.00;;;7.80
64960;BMP180;51487;52.266;10.542;2024-01-30T10:07:03;101716.00;;;7.90
64960;BMP180;51487;52.266;10.542;2024-01-30T10:09:32;101710.00;;;7.90
64960;BMP180;51487;52.266;10.542;2024-01-30T10:12:01;101714.00;;;8.10
64960;BMP180;51487;52.266;10.542;2024-01-30T10:14:29;101718.00;;;8.20
64960;BMP180;51487;52.266;10.542;2024-01-30T10:16:55;101709.00;;;8.30
64960;BMP180;51487;52.266;10.542;2024-01-30T10:19:22;101700.00;;;8.40
64960;BMP180;51487;52.266;10.542;2024-01-30T10:21:47;101699.00;;;8.40
64960;BMP180;51487;52.266;10.542;2024-01-30T10:24:13;101702.00;;;8.50
64960;BMP180;51487;52.266;10.542;2024-01-30T10:26:39;101695.00;;;8.50
64960;BMP180;51487;52.266;10.542;2024-01-30T10:29:05;101706.00;;;8.50
64960;BMP180;51487;52.266;10.542;2024-01-30T10:31:31;101700.00;;;8.50
64960;BMP180;51487;52.266;10.542;2024-01-30T10:33:56;101702.00;;;8.50
64960;BMP180;51487;52.266;10.542;2024-01-30T10:36:28;101700.00;;;8.60
64960;BMP180;51487;52.266;10.542;2024-01-30T10:38:59;101699.00;;;8.60
64960;BMP180;51487;52.266;10.542;2024-01-30T10:41:31;101698.00;;;8.60
64960;BMP180;51487;52.266;10.542;2024-01-30T10:44:09;101699.00;;;8.70
64960;BMP180;51487;52.266;10.542;2024-01-30T10:46:36;101700.00;;;8.70
64960;BMP180;51487;52.266;10.542;2024-01-30T10:49:04;101686.00;;;8.80
64960;BMP180;51487;52.266;10.542;2024-01-30T10:51:31;101698.00;;;8.80
64960;BMP180;51487;52.266;10.542;2024-01-30T10:53:57;101702.00;;;9.00
64960;BMP180;51487;52.266;10.542;2024-01-30T10:56:24;101706.00;;;9.10
64960;BMP180;51487;52.266;10.542;2024-01-30T10:58:51;101700.00;;;9.10
64960;BMP180;51487;52.266;10.542;2024-01-30T11:01:19;101695.00;;;9.10
64960;BMP180;51487;52.266;10.542;2024-01-30T11:03:50;101682.00;;;9.10
64960;BMP180;51487;52.266;10.542;2024-01-30T11:06:16;101689.00;;;9.30
64960;BMP180;51487;52.266;10.542;2024-01-30T11:08:45;101690.00;;;9.30
64960;BMP180;51487;52.266;10.542;2024-01-30T11:11:13;101684.00;;;9.20
64960;BMP180;51487;52.266;10.542;2024-01-30T11:13:41;101681.00;;;9.40
64960;BMP180;51487;52.266;10.542;2024-01-30T11:16:11;101673.00;;;9.40
64960;BMP180;51487;52.266;10.542;2024-01-30T11:18:36;101669.00;;;9.50
64960;BMP180;51487;52.266;10.542;2024-01-30T11:21:04;101668.00;;;9.50
64960;BMP180;51487;52.266;10.542;2024-01-30T11:23:30;101665.00;;;9.50
64960;BMP180;51487;52.266;10.542;2024-01-30T11:25:59;101668.00;;;9.60
64960;BMP180;51487;52.266;10.542;2024-01-30T11:28:32;101653.00;;;9.50
64960;BMP180;51487;52.266;10.542;2024-01-30T11:31:06;101671.00;;;9.60
64960;BMP180;51487;52.266;10.542;2024-01-30T11:33:33;101664.00;;;9.70
64960;BMP180;51487;52.266;10.542;2024-01-30T11:36:00;101664.00;;;9.80
64960;BMP180;51487;52.266;10.542;2024-01-30T11:38:27;101669.00;;;9.90
64960;BMP180;51487;52.266;10.542;2024-01-30T11:40:56;101658.00;;;9.80
64960;BMP180;51487;52.266;10.542;2024-01-30T11:43:23;101662.00;;;9.90
64960;BMP180;51487;52.266;10.542;2024-01-30T11:45:49;101658.00;;;10.00
64960;BMP180;51487;52.266;10.542;2024-01-30T11:48:15;101668.00;;;10.00
64960;BMP180;51487;52.266;10.542;2024-01-30T11:50:41;101651.00;;;10.00
64960;BMP180;51487;52.266;10.542;2024-01-30T11:53:09;101658.00;;;10.10
64960;BMP180;51487;52.266;10.542;2024-01-30T11:55:35;101655.00;;;10.10
64960;BMP180;51487;52.266;10.542;2024-01-30T11:58:03;101651.00;;;10.30
64960;BMP180;51487;52.266;10.542;2024-01-30T12:00:31;101648.00;;;10.30
64960;BMP180;51487;52.266;10.542;2024-01-30T12:02:58;101650.00;;;10.40
64960;BMP180;51487;52.266;10.542;2024-01-30T12:05:26;101645.00;;;10.40
64960;BMP180;51487;52.266;10.542;2024-01-30T12:07:53;101646.00;;;10.30
64960;BMP180;51487;52.266;10.542;2024-01-30T12:10:19;101658.00;;;10.30
64960;BMP180;51487;52.266;10.542;2024-01-30T12:12:46;101656.00;;;10.30
64960;BMP180;51487;52.266;10.542;2024-01-30T12:15:14;101643.00;;;10.30
64960;BMP180;51487;52.266;10.542;2024-01-30T12:17:41;101653.00;;;10.30
64960;BMP180;51487;52.266;10.542;2024-01-30T12:22:36;101655.00;;;10.50
64960;BMP180;51487;52.266;10.542;2024-01-30T12:25:09;101649.00;;;10.40
64960;BMP180;51487;52.266;10.542;2024-01-30T12:27:39;101656.00;;;10.40
64960;BMP180;51487;52.266;10.542;2024-01-30T12:30:08;101652.00;;;10.40
64960;BMP180;51487;52.266;10.542;2024-01-30T12:32:45;101649.00;;;10.50
64960;BMP180;51487;52.266;10.542;2024-01-30T12:35:14;101654.00;;;10.50
64960;BMP180;51487;52.266;10.542;2024-01-30T12:37:44;101642.00;;;10.50
64960;BMP180;51487;52.266;10.542;2024-01-30T12:40:13;101641.00;;;10.60
64960;BMP180;51487;52.266;10.542;2024-01-30T12:42:43;101635.00;;;10.60
64960;BMP180;51487;52.266;10.542;2024-01-30T12:45:14;101635.00;;;10.50
64960;BMP180;51487;52.266;10.542;2024-01-30T12:47:47;101626.00;;;10.50
64960;BMP180;51487;52.266;10.542;2024-01-30T12:50:16;101631.00;;;10.40
64960;BMP180;51487;52.266;10.542;2024-01-30T12:52:43;101623.00;;;10.40
64960;BMP180;51487;52.266;10.542;2024-01-30T12:55:08;101630.00;;;10.50
64960;BMP180;51487;52.266;10.542;2024-01-30T12:57:34;101631.00;;;10.50
64960;BMP180;51487;52.266;10.542;2024-01-30T13:00:00;101642.00;;;10.40
64960;BMP180;51487;52.266;10.542;2024-01-30T13:02:26;101633.00;;;10.60
64960;BMP180;51487;52.266;10.542;2024-01-30T13:05:00;101640.00;;;10.50
64960;BMP180;51487;52.266;10.542;2024-01-30T13:07:25;101643.00;;;10.50
64960;BMP180;51487;52.266;10.542;2024-01-30T13:09:51;101663.00;;;10.50
64960;BMP180;51487;52.266;10.542;2024-01-30T13:12:16;101662.00;;;10.50
64960;BMP180;51487;52.266;10.542;2024-01-30T13:14:42;101653.00;;;10.50
64960;BMP180;51487;52.266;10.542;2024-01-30T13:17:08;101656.00;;;10.50
64960;BMP180;51487;52.266;10.542;2024-01-30T13:19:33;101648.00;;;10.50
64960;BMP180;51487;52.266;10.542;2024-01-30T13:21:59;101655.00;;;10.50
64960;BMP180;51487;52.266;10.542;2024-01-30T13:24:24;101662.00;;;10.50
64960;BMP180;51487;52.266;10.542;2024-01-30T13:26:50;101655.00;;;10.60
64960;BMP180;51487;52.266;10.542;2024-01-30T13:29:16;101659.00;;;10.50
64960;BMP180;51487;52.266;10.542;2024-01-30T13:31:41;101665.00;;;10.50
64960;BMP180;51487;52.266;10.542;2024-01-30T13:34:09;101666.00;;;10.60
64960;BMP180;51487;52.266;10.542;2024-01-30T13:36:35;101661.00;;;10.60
64960;BMP180;51487;52.266;10.542;2024-01-30T13:39:00;101661.00;;;10.50
64960;BMP180;51487;52.266;10.542;2024-01-30T13:41:26;101651.00;;;10.40
64960;BMP180;51487;52.266;10.542;2024-01-30T13:43:51;101657.00;;;10.40
64960;BMP180;51487;52.266;10.542;2024-01-30T13:46:17;101666.00;;;10.50
64960;BMP180;51487;52.266;10.542;2024-01-30T13:48:42;101665.00;;;10.50
64960;BMP180;51487;52.266;10.542;2024-01-30T13:51:08;101659.00;;;10.50
64960;BMP180;51487;52.266;10.542;2024-01-30T13:53:34;101665.00;;;10.50